Time;durP1;ratioP1;P1;durP2;ratioP2;P2;SDS_P1;SDS_P2;PMS_P1;PMS_P2;Temp;Humidity;BMP_temperature;BMP_pressure;BME280_temperature;BME280_humidity;BME280_pressure;Samples;Min_cycle;Max_cycle;Signal;HPM_P1;HPM_P2
2021/12/09 00:01:23;;;;;;;21.17;2.55;;;;;;;9.40;56.45;98945.28;4936885;29;20131;-92
2021/12/09 00:03:53;;;;;;;14.82;2.72;;;;;;;9.26;56.91;98943.00;4938648;29;20110;-92
2021/12/09 00:06:23;;;;;;;20.98;2.65;;;;;;;8.91;57.36;98931.97;4936319;29;20035;-92
2021/12/09 00:08:49;;;;;;;20.17;2.28;;;;;;;9.19;57.38;98941.88;4935465;29;20034;-92
2021/12/09 00:11:15;;;;;;;20.55;2.63;;;;;;;9.22;57.20;98944.22;4919707;29;20036;-92
2021/12/09 00:13:41;;;;;;;11.35;2.70;;;;;;;9.45;56.45;98950.13;4924387;29;20034;-92
2021/12/09 00:16:06;;;;;;;79.18;26.00;;;;;;;9.25;56.68;98943.97;4938324;29;20027;-92
2021/12/09 00:18:32;;;;;;;14.02;2.28;;;;;;;9.41;56.07;98938.25;4935178;29;20127;-92
2021/12/09 00:20:57;;;;;;;22.67;2.88;;;;;;;9.42;56.43;98939.88;4919920;29;20462;-93
2021/12/09 00:23:22;;;;;;;24.70;2.90;;;;;;;9.38;57.21;98933.25;4920324;29;20036;-93
2021/12/09 00:25:48;;;;;;;13.32;2.13;;;;;;;9.33;57.44;98950.22;4918089;29;20084;-92
2021/12/09 00:28:13;;;;;;;11.20;2.08;;;;;;;8.93;57.26;98958.03;4919061;29;20497;-93
2021/12/09 00:30:39;;;;;;;20.15;2.67;;;;;;;9.27;56.05;98949.91;4937537;29;20028;-92
2021/12/09 00:33:06;;;;;;;15.77;2.28;;;;;;;9.32;57.12;98952.94;4937657;29;20035;-92
2021/12/09 00:35:42;;;;;;;132.50;33.90;;;;;;;9.18;57.27;98963.78;4919580;29;20058;-92
2021/12/09 00:38:12;;;;;;;16.17;2.45;;;;;;;9.26;56.76;98971.81;4918966;29;20059;-92
2021/12/09 00:40:38;;;;;;;22.98;3.88;;;;;;;9.40;57.17;98971.47;4936393;29;20063;-92
2021/12/09 00:43:04;;;;;;;23.73;3.90;;;;;;;9.33;56.68;98971.16;4937534;29;20024;-92
2021/12/09 00:45:30;;;;;;;16.27;2.25;;;;;;;9.27;56.95;98973.50;4920958;29;20047;-93
2021/12/09 00:47:56;;;;;;;14.65;2.22;;;;;;;9.30;56.85;98976.69;4918495;29;20108;-93
2021/12/09 00:50:22;;;;;;;13.93;2.40;;;;;;;9.11;56.64;98984.44;4918877;29;20100;-93
2021/12/09 00:52:48;;;;;;;18.38;3.05;;;;;;;9.22;57.36;98980.91;4917943;29;20024;-92
2021/12/09 00:55:14;;;;;;;20.85;2.97;;;;;;;9.07;57.84;98986.47;4931464;29;20038;-92
2021/12/09 00:57:41;;;;;;;9.80;2.53;;;;;;;9.23;56.99;98987.81;4937497;29;20024;-92
2021/12/09 01:00:14;;;;;;;11.93;2.30;;;;;;;9.34;57.04;98987.72;4925826;29;20028;-92
2021/12/09 01:02:40;;;;;;;14.00;2.50;;;;;;;9.37;56.70;98984.00;4919617;29;20036;-92
2021/12/09 01:05:07;;;;;;;15.88;2.30;;;;;;;9.39;56.79;98984.72;4938051;29;20546;-92
2021/12/09 01:07:34;;;;;;;15.70;2.58;;;;;;;9.42;57.22;98993.13;4937471;29;20036;-92
2021/12/09 01:10:00;;;;;;;19.55;2.72;;;;;;;9.37;56.87;98984.84;4928881;29;20450;-92
2021/12/09 01:12:26;;;;;;;18.83;4.53;;;;;;;9.65;56.94;98993.75;4937856;29;20031;-93
2021/12/09 01:14:52;;;;;;;13.75;2.20;;;;;;;9.50;57.46;99002.97;4920075;29;20020;-92
2021/12/09 01:17:17;;;;;;;18.33;2.60;;;;;;;9.48;56.63;99003.09;4918665;29;20513;-92
2021/12/09 01:19:43;;;;;;;14.75;2.47;;;;;;;9.36;57.17;99009.38;4933997;29;20067;-92
2021/12/09 01:22:09;;;;;;;17.20;2.10;;;;;;;9.24;57.54;99005.16;4936301;29;20040;-92
2021/12/09 01:24:34;;;;;;;15.95;2.40;;;;;;;9.35;56.74;99018.19;4924331;29;20483;-92
2021/12/09 01:27:01;;;;;;;21.48;4.10;;;;;;;9.80;56.47;99020.44;4918616;29;20494;-92
2021/12/09 01:29:36;;;;;;;14.30;2.78;;;;;;;9.66;56.63;99026.06;4930915;29;20016;-93
2021/12/09 01:32:05;;;;;;;19.02;2.40;;;;;;;9.70;55.91;99028.28;4924722;28;20386;-92
2021/12/09 01:34:31;;;;;;;11.45;2.60;;;;;;;9.70;56.16;99035.31;4918529;29;20023;-92
2021/12/09 01:36:58;;;;;;;14.20;2.28;;;;;;;9.70;56.35;99043.19;4929291;29;20448;-93
2021/12/09 01:39:26;;;;;;;11.65;1.95;;;;;;;9.83;56.57;99046.38;4931325;29;20103;-92
2021/12/09 01:41:52;;;;;;;9.57;2.30;;;;;;;9.87;56.67;99050.41;4926546;29;20020;-92
2021/12/09 01:44:17;;;;;;;12.35;1.90;;;;;;;9.87;56.26;99039.94;4929669;29;20066;-92
2021/12/09 01:46:43;;;;;;;14.77;1.83;;;;;;;9.73;56.39;99048.13;4917074;29;20040;-93
2021/12/09 01:49:08;;;;;;;17.70;2.90;;;;;;;9.92;55.65;99047.38;4923173;29;20386;-92
2021/12/09 01:51:34;;;;;;;17.75;2.70;;;;;;;9.57;57.06;99043.38;4936279;29;20036;-93
2021/12/09 01:53:59;;;;;;;14.38;2.42;;;;;;;9.83;56.39;99059.47;4924170;29;20474;-93
2021/12/09 01:56:27;;;;;;;14.13;1.70;;;;;;;9.74;56.64;99055.06;4936941;29;20112;-92
2021/12/09 01:59:02;;;;;;;17.23;2.45;;;;;;;9.51;57.11;99059.63;4921801;29;20541;-92
2021/12/09 02:01:27;;;;;;;16.52;4.07;;;;;;;9.71;56.51;99063.16;4915971;29;20028;-93
2021/12/09 02:03:53;;;;;;;18.73;2.60;;;;;;;9.76;56.25;99061.00;4931573;29;20035;-92
2021/12/09 02:06:19;;;;;;;18.92;3.13;;;;;;;9.28;58.03;99058.94;4936068;29;20032;-92
2021/12/09 02:08:46;;;;;;;14.32;2.70;;;;;;;9.54;57.23;99056.75;4924558;29;20070;-92
2021/12/09 02:11:11;;;;;;;12.35;2.90;;;;;;;9.58;56.89;99046.81;4917232;29;20028;-93
2021/12/09 02:13:37;;;;;;;20.52;2.70;;;;;;;9.38;58.33;99065.09;4928064;29;20612;-92
2021/12/09 02:16:03;;;;;;;18.40;2.45;;;;;;;9.50;57.82;99060.59;4934496;29;20031;-92
2021/12/09 02:18:29;;;;;;;15.43;2.88;;;;;;;9.58;56.83;99046.81;4925912;29;20028;-92
2021/12/09 02:21:06;;;;;;;20.77;3.35;;;;;;;9.79;56.83;99057.25;4917355;29;20047;-92
2021/12/09 02:23:32;;;;;;;10.63;2.58;;;;;;;9.44;57.23;99059.34;4925070;29;20495;-92
2021/12/09 02:25:58;;;;;;;12.77;2.17;;;;;;;9.28;58.35;99056.31;4916504;29;20514;-92
2021/12/09 02:28:24;;;;;;;12.32;2.15;;;;;;;9.46;57.15;99054.78;4923372;29;20118;-92
2021/12/09 02:30:50;;;;;;;19.17;2.88;;;;;;;9.34;57.10;99068.94;4936219;29;20078;-93
2021/12/09 02:33:15;;;;;;;21.77;2.88;;;;;;;9.62;56.83;99072.66;4935514;29;20031;-92
2021/12/09 02:35:41;;;;;;;13.80;2.30;;;;;;;9.67;56.84;99064.38;4935945;29;20028;-92
2021/12/09 02:38:08;;;;;;;18.90;2.70;;;;;;;9.57;57.10;99074.00;4930800;29;20031;-92
2021/12/09 02:40:33;;;;;;;13.00;1.85;;;;;;;9.72;56.66;99067.47;4930166;29;20032;-91
2021/12/09 02:43:00;;;;;;;22.73;2.67;;;;;;;9.45;57.46;99068.84;4932015;29;20030;-92
2021/12/09 02:45:25;;;;;;;8.38;1.65;;;;;;;9.66;57.15;99068.00;4916448;29;20039;-93
2021/12/09 02:47:50;;;;;;;17.63;2.45;;;;;;;9.63;57.16;99076.09;4919778;29;20028;-93
2021/12/09 02:50:16;;;;;;;12.20;2.00;;;;;;;9.53;56.57;99071.63;4916281;29;20386;-92
2021/12/09 02:52:41;;;;;;;11.45;2.38;;;;;;;9.62;56.97;99088.38;4916484;29;20119;-91
2021/12/09 02:55:07;;;;;;;21.75;2.35;;;;;;;9.48;56.77;99091.34;4916772;29;20035;-91
2021/12/09 02:57:33;;;;;;;14.88;2.25;;;;;;;9.70;56.42;99096.41;4916858;29;20047;-93
2021/12/09 02:59:58;;;;;;;9.93;2.10;;;;;;;9.53;57.30;99100.44;4938194;29;20470;-92
2021/12/09 03:02:24;;;;;;;15.10;2.70;;;;;;;9.24;57.99;99105.53;4933891;29;20023;-93
2021/12/09 03:04:52;;;;;;;16.80;2.33;;;;;;;9.28;57.24;99111.31;4922712;29;20481;-93
2021/12/09 03:07:23;;;;;;;15.70;3.17;;;;;;;9.52;57.04;99109.28;4924525;29;20028;-93
2021/12/09 03:09:53;;;;;;;15.07;2.95;;;;;;;9.32;57.68;99112.72;4939063;29;20063;-92
2021/12/09 03:12:25;;;;;;;10.85;1.83;;;;;;;9.55;57.37;99110.00;4934207;29;20076;-93
2021/12/09 03:14:51;;;;;;;16.67;2.55;;;;;;;9.47;57.28;99111.44;4920302;29;20059;-92
2021/12/09 03:17:18;;;;;;;18.58;1.95;;;;;;;9.43;57.51;99104.00;4922106;29;20471;-93
2021/12/09 03:19:44;;;;;;;9.68;1.73;;;;;;;9.40;57.81;99104.22;4940097;29;20032;-93
2021/12/09 03:22:10;;;;;;;18.83;2.58;;;;;;;9.36;58.19;99114.16;4940181;29;20031;-95
2021/12/09 03:24:36;;;;;;;5.95;1.50;;;;;;;9.31;58.29;99105.84;4940590;29;20287;-94
2021/12/09 03:27:02;;;;;;;17.15;2.72;;;;;;;9.41;58.09;99106.72;4939720;29;20385;-92
2021/12/09 03:29:28;;;;;;;12.43;2.00;;;;;;;9.36;58.00;99118.56;4940247;29;20101;-93
2021/12/09 03:31:57;;;;;;;16.08;2.08;;;;;;;9.31;57.46;99116.31;4940127;29;20035;-94
2021/12/09 03:34:25;;;;;;;18.58;2.70;;;;;;;8.99;58.83;99122.44;4921434;29;20525;-94
2021/12/09 03:36:51;;;;;;;14.70;2.20;;;;;;;9.24;58.01;99121.25;4920700;29;20505;-93
2021/12/09 03:39:19;;;;;;;14.25;3.35;;;;;;;9.31;58.24;99122.38;4936963;29;20023;-94
2021/12/09 03:41:48;;;;;;;15.65;2.92;;;;;;;9.41;57.91;99137.34;4937589;29;20028;-93
2021/12/09 03:44:14;;;;;;;18.80;3.13;;;;;;;9.19;57.70;99133.06;4939018;29;20024;-94
2021/12/09 03:46:39;;;;;;;9.35;2.17;;;;;;;9.20;58.19;99129.47;4937988;29;20042;-94
2021/12/09 03:49:05;;;;;;;20.75;3.38;;;;;;;8.73;59.29;99130.63;4921162;28;20036;-93
2021/12/09 03:51:35;;;;;;;12.90;2.20;;;;;;;9.25;58.08;99137.78;4932627;29;20023;-94
2021/12/09 03:54:01;;;;;;;12.52;2.30;;;;;;;9.20;57.50;99142.56;4937529;29;20083;-93
2021/12/09 03:56:26;;;;;;;21.50;2.45;;;;;;;9.03;58.25;99141.34;4926679;29;20047;-93
2021/12/09 03:58:51;;;;;;;16.52;2.50;;;;;;;9.17;58.80;99145.47;4917235;29;20031;-92
2021/12/09 04:01:17;;;;;;;10.93;2.08;;;;;;;9.17;58.75;99145.47;4928168;29;20019;-93
2021/12/09 04:03:42;;;;;;;12.10;2.33;;;;;;;9.10;58.78;99151.19;4935422;29;20036;-92
2021/12/09 04:06:08;;;;;;;7.15;1.60;;;;;;;9.14;58.01;99154.38;4937430;29;20438;-92
2021/12/09 04:08:33;;;;;;;11.65;1.73;;;;;;;8.94;58.71;99150.75;4921324;29;20032;-93
2021/12/09 04:10:59;;;;;;;21.23;2.28;;;;;;;8.99;59.11;99159.09;4937104;29;20028;-93
2021/12/09 04:13:25;;;;;;;13.57;2.13;;;;;;;8.88;58.53;99164.34;4937352;29;20036;-92
2021/12/09 04:15:50;;;;;;;14.75;1.90;;;;;;;8.83;59.17;99159.50;4937835;29;20027;-91
2021/12/09 04:18:15;;;;;;;13.93;1.80;;;;;;;9.00;58.70;99165.97;4937670;29;20043;-93
2021/12/09 04:20:41;;;;;;;12.98;2.00;;;;;;;9.10;57.90;99161.69;4919106;29;20453;-93
2021/12/09 04:23:07;;;;;;;14.57;2.42;;;;;;;9.04;59.00;99163.94;4934730;29;20457;-93
2021/12/09 04:25:34;;;;;;;17.70;2.22;;;;;;;8.67;59.68;99173.00;4920770;29;20503;-93
2021/12/09 04:28:00;;;;;;;8.85;1.60;;;;;;;8.69;60.09;99168.47;4923715;29;20119;-93
2021/12/09 04:30:29;;;;;;;16.13;2.55;;;;;;;8.86;59.34;99174.94;4937622;29;20063;-93
2021/12/09 04:32:55;;;;;;;9.95;1.58;;;;;;;8.90;58.70;99180.78;4932664;29;20012;-93
2021/12/09 04:35:21;;;;;;;9.73;1.45;;;;;;;8.80;59.73;99174.63;4918914;29;20107;-92
2021/12/09 04:37:47;;;;;;;15.23;1.60;;;;;;;8.81;59.42;99184.16;4918719;29;20490;-93
2021/12/09 04:40:14;;;;;;;15.07;2.65;;;;;;;8.87;59.06;99183.66;4917825;29;20051;-93
2021/12/09 04:42:40;;;;;;;14.70;1.85;;;;;;;8.71;59.65;99190.09;4919248;29;20043;-93
2021/12/09 04:45:07;;;;;;;13.23;1.95;;;;;;;8.79;60.00;99188.63;4938518;29;20474;-92
2021/12/09 04:47:33;;;;;;;13.68;1.80;;;;;;;8.77;59.94;99193.16;4938534;28;20036;-94
2021/12/09 04:49:58;;;;;;;10.93;2.35;;;;;;;8.83;59.77;99192.69;4919326;29;20043;-93
2021/12/09 04:52:24;;;;;;;9.32;2.00;;;;;;;8.82;59.45;99184.00;4920028;29;20028;-93
2021/12/09 04:54:49;;;;;;;16.73;2.80;;;;;;;8.74;59.75;99183.78;4936043;29;20059;-93
2021/12/09 04:57:16;;;;;;;15.05;1.55;;;;;;;8.79;59.19;99197.34;4938648;29;20110;-93
2021/12/09 04:59:42;;;;;;;13.60;1.70;;;;;;;8.77;59.86;99196.63;4937863;29;20114;-93
2021/12/09 05:02:19;;;;;;;13.35;2.30;;;;;;;8.76;60.19;99200.19;4936098;29;20035;-93
2021/12/09 05:04:46;;;;;;;10.48;1.75;;;;;;;8.69;59.95;99192.00;4936727;29;20435;-93
2021/12/09 05:07:12;;;;;;;6.22;1.45;;;;;;;8.63;59.82;99192.50;4937557;29;20035;-93
2021/12/09 05:09:39;;;;;;;9.27;1.90;;;;;;;8.62;60.25;99185.59;4931645;29;20047;-93
2021/12/09 05:12:05;;;;;;;11.48;2.38;;;;;;;8.53;60.42;99186.31;4937774;29;20041;-93
2021/12/09 05:14:31;;;;;;;11.30;1.95;;;;;;;8.46;60.32;99198.22;4925530;29;20399;-93
2021/12/09 05:16:58;;;;;;;8.73;1.58;;;;;;;8.38;60.07;99195.34;4919090;29;20047;-93
2021/12/09 05:19:24;;;;;;;10.18;1.60;;;;;;;8.36;59.88;99203.31;4937402;29;20016;-93
2021/12/09 05:21:52;;;;;;;11.80;1.67;;;;;;;8.36;60.83;99197.25;4937198;29;20024;-94
2021/12/09 05:24:18;;;;;;;12.18;2.65;;;;;;;8.23;61.67;99186.91;4935391;29;20020;-91
2021/12/09 05:26:49;;;;;;;16.13;2.45;;;;;;;8.24;61.70;99181.56;4934557;29;20039;-93
2021/12/09 05:29:17;;;;;;;29.10;4.13;;;;;;;8.25;61.08;99185.81;4935666;29;20036;-93
2021/12/09 05:34:29;;;;;;;9.75;1.98;;;;;;;8.20;61.79;99195.81;4921648;29;20058;-92
2021/12/09 05:36:54;;;;;;;14.15;1.77;;;;;;;8.13;62.42;99194.63;4935977;29;20118;-92
2021/12/09 05:39:20;;;;;;;14.90;1.85;;;;;;;8.18;62.54;99184.66;4936472;29;20130;-92
2021/12/09 05:41:47;;;;;;;22.80;3.40;;;;;;;8.20;62.34;99181.94;4935267;29;20031;-93
2021/12/09 05:44:13;;;;;;;17.55;3.63;;;;;;;8.28;61.45;99197.84;4934825;29;20032;-92
2021/12/09 05:46:45;;;;;;;16.63;2.00;;;;;;;8.28;62.27;99205.69;4936455;29;20027;-92
2021/12/09 05:49:12;;;;;;;12.20;1.92;;;;;;;8.25;62.28;99221.59;4935538;29;20059;-92
2021/12/09 05:51:38;;;;;;;11.35;1.88;;;;;;;8.33;62.74;99208.78;4935481;29;20024;-92
2021/12/09 05:54:04;;;;;;;12.38;1.77;;;;;;;8.36;62.55;99208.53;4927810;29;20036;-92
2021/12/09 05:56:30;;;;;;;18.02;2.13;;;;;;;8.30;62.60;99199.38;4936825;29;20147;-92
2021/12/09 05:58:56;;;;;;;14.30;1.90;;;;;;;8.57;61.41;99211.31;4926777;29;20095;-92
2021/12/09 06:01:22;;;;;;;21.42;1.88;;;;;;;8.36;61.66;99223.41;4917772;29;20058;-92
2021/12/09 06:03:48;;;;;;;11.25;1.95;;;;;;;8.57;61.83;99221.78;4925229;29;20039;-92
2021/12/09 06:06:13;;;;;;;15.02;2.30;;;;;;;8.65;61.31;99210.66;4936347;29;20028;-92
2021/12/09 06:08:40;;;;;;;14.98;2.20;;;;;;;8.63;61.76;99210.81;4934632;29;20037;-93
2021/12/09 06:11:07;;;;;;;12.05;1.85;;;;;;;8.66;61.47;99225.44;4917534;29;20024;-92
2021/12/09 06:13:36;;;;;;;15.45;2.33;;;;;;;8.60;61.70;99221.50;4931755;29;20066;-92
2021/12/09 06:16:01;;;;;;;13.43;2.03;;;;;;;8.63;61.01;99221.28;4936158;29;20027;-92
2021/12/09 06:18:27;;;;;;;16.52;2.17;;;;;;;8.58;61.32;99228.66;4922077;29;20028;-92
2021/12/09 06:20:52;;;;;;;9.65;1.67;;;;;;;8.60;60.87;99229.38;4917852;29;20474;-93
2021/12/09 06:23:18;;;;;;;10.20;1.50;;;;;;;8.61;61.08;99232.81;4929109;29;20029;-92
2021/12/09 06:25:44;;;;;;;15.38;2.47;;;;;;;8.58;60.70;99241.72;4921224;29;20132;-92
2021/12/09 06:28:09;;;;;;;14.15;2.22;;;;;;;8.49;61.41;99245.91;4926590;29;20110;-93
2021/12/09 06:30:35;;;;;;;17.40;2.42;;;;;;;8.45;61.65;99248.88;4935214;29;20032;-92
2021/12/09 06:33:01;;;;;;;9.75;2.10;;;;;;;8.51;61.28;99253.63;4928564;29;20039;-93
2021/12/09 06:35:27;;;;;;;13.05;2.17;;;;;;;8.52;61.98;99240.44;4934803;29;20466;-92
2021/12/09 06:37:54;;;;;;;11.25;1.95;;;;;;;8.45;61.47;99256.72;4939738;29;20046;-92
2021/12/09 06:40:21;;;;;;;13.70;2.85;;;;;;;8.45;61.69;99251.47;4928614;29;20128;-93
2021/12/09 06:42:48;;;;;;;10.55;2.08;;;;;;;8.51;61.78;99251.00;4921438;29;20024;-92
2021/12/09 06:45:15;;;;;;;9.75;1.85;;;;;;;8.51;61.22;99258.84;4933164;29;20413;-92
2021/12/09 06:47:42;;;;;;;15.65;3.15;;;;;;;8.52;61.40;99257.91;4939502;28;20040;-93
2021/12/09 06:50:10;;;;;;;17.48;2.33;;;;;;;8.47;61.68;99250.44;4938036;29;20035;-92
2021/12/09 06:52:36;;;;;;;11.43;1.70;;;;;;;8.58;61.33;99259.22;4937602;29;20111;-93
2021/12/09 06:55:04;;;;;;;9.90;2.10;;;;;;;8.49;61.64;99265.97;4938752;29;20083;-93
2021/12/09 06:57:29;;;;;;;7.75;1.70;;;;;;;8.51;61.88;99267.56;4937644;29;20031;-92
2021/12/09 06:59:55;;;;;;;14.68;4.15;;;;;;;8.51;61.08;99270.16;4938347;29;20034;-93
2021/12/09 07:02:21;;;;;;;11.23;2.17;;;;;;;8.59;61.13;99279.19;4938012;29;20098;-92
2021/12/09 07:04:47;;;;;;;11.75;1.90;;;;;;;8.56;61.30;99288.13;4939780;29;20046;-94
2021/12/09 07:07:13;;;;;;;7.93;1.60;;;;;;;8.55;61.26;99286.47;4925739;29;20492;-91
2021/12/09 07:09:39;;;;;;;14.32;2.97;;;;;;;8.52;61.08;99278.84;4923825;29;20024;-92
2021/12/09 07:12:05;;;;;;;12.48;2.80;;;;;;;8.63;61.20;99273.63;4933650;29;20060;-92
2021/12/09 07:14:31;;;;;;;10.30;1.83;;;;;;;8.64;61.31;99270.03;4925566;29;20173;-92
2021/12/09 07:16:56;;;;;;;9.40;2.13;;;;;;;8.60;61.51;99273.03;4925701;29;20035;-91
2021/12/09 07:19:22;;;;;;;10.75;2.00;;;;;;;8.57;61.59;99273.25;4928917;29;20060;-92
2021/12/09 07:21:48;;;;;;;18.65;2.83;;;;;;;8.57;62.16;99262.78;4927909;29;20024;-92
2021/12/09 07:24:13;;;;;;;8.32;2.08;;;;;;;8.62;62.20;99266.72;4924389;29;20024;-93
2021/12/09 07:26:39;;;;;;;13.13;1.75;;;;;;;8.65;61.25;99274.31;4931590;29;20039;-92
2021/12/09 07:29:04;;;;;;;9.38;2.15;;;;;;;8.59;61.79;99272.19;4938924;29;20031;-92
2021/12/09 07:31:31;;;;;;;11.90;2.35;;;;;;;8.65;61.86;99287.41;4935442;29;20032;-92
2021/12/09 07:33:57;;;;;;;14.32;2.08;;;;;;;8.53;62.09;99289.19;4939900;29;20146;-93
2021/12/09 07:36:24;;;;;;;18.45;2.63;;;;;;;8.63;61.86;99278.84;4922569;29;20004;-93
2021/12/09 07:38:50;;;;;;;12.27;2.05;;;;;;;8.50;61.71;99275.50;4939491;29;20032;-93
2021/12/09 07:41:16;;;;;;;10.98;2.05;;;;;;;8.41;61.57;99276.19;4937759;28;20079;-96
2021/12/09 07:43:43;;;;;;;8.60;2.03;;;;;;;8.35;61.29;99280.09;4938175;29;20023;-95
2021/12/09 07:46:09;;;;;;;9.55;2.13;;;;;;;8.28;62.19;99277.13;4934144;29;20028;-95
2021/12/09 07:48:35;;;;;;;12.57;2.20;;;;;;;8.27;62.08;99296.41;4922938;29;20024;-94
2021/12/09 07:51:01;;;;;;;16.30;2.80;;;;;;;8.18;62.00;99294.47;4922925;29;20036;-96
2021/12/09 07:53:26;;;;;;;15.30;2.38;;;;;;;8.11;62.02;99290.66;4934073;29;20119;-96
2021/12/09 07:55:53;;;;;;;9.45;2.10;;;;;;;8.15;62.54;99292.09;4940092;28;20074;-95
2021/12/09 07:58:19;;;;;;;9.75;1.85;;;;;;;8.10;62.19;99294.22;4927859;29;20570;-96
2021/12/09 08:00:45;;;;;;;11.35;2.47;;;;;;;8.04;62.65;99287.69;4937631;29;20100;-95
2021/12/09 08:03:10;;;;;;;13.52;2.53;;;;;;;8.06;62.31;99283.16;4930735;29;20028;-94
2021/12/09 08:05:40;;;;;;;16.15;3.05;;;;;;;7.95;63.35;99283.94;4938277;29;20027;-92
2021/12/09 08:10:41;;;;;;;14.85;3.13;;;;;;;8.32;62.97;99283.78;5207351;23;20503;-94
2021/12/09 08:13:08;;;;;;;14.27;3.53;;;;;;;8.31;62.33;99284.75;4911821;29;20035;-96
2021/12/09 08:15:37;;;;;;;20.48;3.30;;;;;;;8.34;62.65;99289.72;4901595;29;20064;-96
2021/12/09 08:20:39;;;;;;;20.10;3.63;;;;;;;8.54;62.63;99290.84;4905682;29;20567;-96
2021/12/09 08:23:05;;;;;;;17.60;4.57;;;;;;;8.50;62.39;99288.59;4898144;29;20033;-96
2021/12/09 08:25:30;;;;;;;18.98;3.67;;;;;;;8.70;62.51;99292.28;4905652;29;20056;-93
2021/12/09 08:27:56;;;;;;;11.52;2.60;;;;;;;8.76;62.48;99293.59;4905140;29;20039;-95
2021/12/09 08:30:25;;;;;;;11.45;2.60;;;;;;;8.77;62.29;99290.00;4899464;29;20407;-94
2021/12/09 08:32:51;;;;;;;10.65;2.92;;;;;;;8.81;61.96;99286.22;4898082;29;20029;-94
2021/12/09 08:35:16;;;;;;;12.23;3.17;;;;;;;8.85;62.02;99295.50;4902941;29;20494;-95
2021/12/09 08:37:44;;;;;;;19.58;3.88;;;;;;;8.85;62.64;99287.63;5277658;23;20047;-92
2021/12/09 08:40:11;;;;;;;13.30;2.75;;;;;;;8.88;61.91;99287.38;4937733;29;20035;-94
2021/12/09 08:42:36;;;;;;;11.18;2.60;;;;;;;8.90;62.11;99280.25;4933001;29;20036;-91
2021/12/09 08:45:06;;;;;;;12.35;2.25;;;;;;;8.92;62.13;99271.31;4916379;29;20091;-92
2021/12/09 08:47:31;;;;;;;14.85;3.83;;;;;;;8.96;62.44;99268.47;4918735;29;20060;-94
2021/12/09 08:49:57;;;;;;;18.40;3.28;;;;;;;8.99;62.50;99269.06;4919427;29;20031;-94
2021/12/09 08:52:22;;;;;;;16.38;3.33;;;;;;;9.00;62.14;99265.47;4919444;29;20091;-94
2021/12/09 08:54:48;;;;;;;17.38;2.83;;;;;;;9.07;62.11;99260.59;4919576;29;20111;-96
2021/12/09 08:57:13;;;;;;;26.20;3.42;;;;;;;9.05;62.74;99270.34;4918692;29;20360;-94
2021/12/09 08:59:39;;;;;;;24.90;3.92;;;;;;;9.13;62.60;99274.00;4919367;29;20494;-95
2021/12/09 09:02:05;;;;;;;22.52;3.58;;;;;;;9.23;61.88;99278.53;4919786;29;20115;-95
2021/12/09 09:04:30;;;;;;;23.95;3.63;;;;;;;9.30;61.69;99272.66;4919835;29;20024;-95
2021/12/09 09:06:59;;;;;;;12.20;2.70;;;;;;;9.34;61.89;99270.63;4919959;29;20167;-94
2021/12/09 09:09:27;;;;;;;16.33;3.63;;;;;;;9.41;62.12;99263.94;4923610;29;20008;-95
2021/12/09 09:11:54;;;;;;;13.10;3.25;;;;;;;9.45;61.71;99267.97;4922492;29;20033;-96
2021/12/09 09:14:20;;;;;;;14.80;3.28;;;;;;;9.53;62.10;99277.81;4919941;29;20036;-95
2021/12/09 09:16:45;;;;;;;16.25;2.50;;;;;;;9.65;61.88;99275.97;4919427;29;20055;-95
2021/12/09 09:19:12;;;;;;;18.10;3.10;;;;;;;9.75;61.58;99276.88;4919674;29;20036;-93
2021/12/09 09:21:37;;;;;;;12.70;3.60;;;;;;;9.84;61.63;99283.16;4918414;29;20550;-94
2021/12/09 09:24:03;;;;;;;10.80;2.50;;;;;;;9.90;61.22;99291.34;4918815;29;20032;-96
2021/12/09 09:26:30;;;;;;;11.60;2.40;;;;;;;9.97;61.15;99290.84;4921717;29;20032;-96
2021/12/09 09:28:57;;;;;;;11.35;2.80;;;;;;;10.08;61.24;99275.03;4920393;29;20361;-96
2021/12/09 09:31:26;;;;;;;6.07;2.05;;;;;;;10.20;61.41;99274.00;4920668;29;20019;-96
2021/12/09 09:33:52;;;;;;;9.18;2.17;;;;;;;10.30;61.25;99272.28;4920867;29;20123;-96
2021/12/09 09:36:17;;;;;;;11.35;2.35;;;;;;;10.49;60.69;99257.63;4921004;29;20443;-96
2021/12/09 09:38:42;;;;;;;9.48;1.88;;;;;;;10.63;60.09;99248.56;4919800;29;20071;-96
2021/12/09 09:46:19;;;;;;;13.15;2.50;;;;;;;11.16;59.13;99247.41;4920746;29;20042;-96
2021/12/09 09:48:44;;;;;;;;;;;;;;;11.43;58.95;99255.50;4924011;29;20056;-96
2021/12/09 09:51:11;;;;;;;16.70;2.47;;;;;;;11.83;57.50;99251.03;4923732;29;19915;-96
2021/12/09 09:53:38;;;;;;;18.00;2.15;;;;;;;11.94;57.04;99247.44;4924799;29;20168;-96
2021/12/09 09:56:12;;;;;;;15.63;2.65;;;;;;;12.06;56.41;99251.56;4926755;29;20076;-96
2021/12/09 09:58:38;;;;;;;13.40;2.97;;;;;;;12.34;56.39;99262.16;4923091;29;20028;-95
2021/12/09 10:01:03;;;;;;;11.40;3.03;;;;;;;12.51;55.67;99256.13;4927568;29;20055;-96
2021/12/09 10:03:30;;;;;;;18.50;2.33;;;;;;;12.94;54.90;99257.31;4922985;29;20060;-95
2021/12/09 10:06:02;;;;;;;16.33;3.00;;;;;;;13.57;52.55;99260.94;4920420;29;20475;-95
2021/12/09 10:08:31;;;;;;;17.55;2.67;;;;;;;14.78;51.75;99269.81;4920454;29;20088;-96
2021/12/09 10:10:56;;;;;;;5.75;1.63;;;;;;;15.75;49.39;99266.75;4926680;29;20032;-96
2021/12/09 10:13:31;;;;;;;13.82;2.70;;;;;;;16.72;46.18;99275.47;4925929;29;20079;-96
2021/12/09 10:15:56;;;;;;;8.70;3.03;;;;;;;17.41;44.84;99270.34;4927275;29;20510;-96
2021/12/09 10:18:45;;;;;;;10.02;3.40;;;;;;;18.26;43.53;99262.38;4929287;29;20024;-96
2021/12/09 10:21:18;;;;;;;13.02;2.50;;;;;;;19.16;42.42;99264.81;4923788;29;20040;-96
2021/12/09 10:23:48;;;;;;;13.90;2.25;;;;;;;19.18;41.01;99262.78;4922842;29;20107;-96
2021/12/09 10:26:24;;;;;;;8.65;2.40;;;;;;;19.95;38.32;99263.13;4922339;29;20052;-95
2021/12/09 10:29:18;;;;;;;11.10;2.50;;;;;;;20.39;39.17;99265.47;4922568;29;20032;-96
2021/12/09 10:31:51;;;;;;;11.10;2.13;;;;;;;20.88;37.83;99249.53;4920123;29;20044;-96
2021/12/09 10:34:33;;;;;;;10.32;2.50;;;;;;;20.78;37.79;99255.25;4920824;29;20039;-96
2021/12/09 10:37:20;;;;;;;16.58;2.08;;;;;;;21.10;36.58;99250.22;4921037;29;20125;-96
2021/12/09 10:39:51;;;;;;;11.65;2.33;;;;;;;21.14;36.48;99251.47;4922057;29;20028;-96
2021/12/09 10:42:18;;;;;;;10.98;2.35;;;;;;;21.20;36.66;99256.00;4921534;29;20550;-96
2021/12/09 10:44:49;;;;;;;11.32;2.47;;;;;;;20.68;37.34;99252.13;4922072;29;20115;-95
2021/12/09 10:55:57;;;;;;;14.75;2.30;;;;;;;18.13;41.41;99226.66;4903701;29;20096;-96
2021/12/09 10:58:27;;;;;;;10.40;2.58;;;;;;;17.76;42.06;99228.28;4919022;29;20035;-96
2021/12/09 11:00:55;;;;;;;14.30;2.10;;;;;;;17.28;42.57;99229.47;4922608;29;20036;-96
2021/12/09 11:03:33;;;;;;;11.75;1.80;;;;;;;17.05;42.78;99231.13;4921679;29;20036;-93
2021/12/09 11:06:02;;;;;;;12.10;2.38;;;;;;;16.64;44.32;99233.13;4924549;29;20032;-96
2021/12/09 11:21:22;;;;;;;13.18;2.80;;;;;;;14.93;48.74;99203.13;4939140;29;20068;-94
2021/12/09 11:23:51;;;;;;;11.70;2.47;;;;;;;14.94;48.93;99200.31;4934440;29;20020;-95
2021/12/09 11:26:22;;;;;;;13.18;2.35;;;;;;;14.59;48.58;99196.94;4923023;29;20061;-93
2021/12/09 11:29:00;;;;;;;10.50;2.15;;;;;;;14.47;49.95;99187.59;4933258;29;20028;-93
2021/12/09 11:31:31;;;;;;;10.30;2.67;;;;;;;14.54;49.90;99175.41;4902872;29;20458;-92
2021/12/09 11:34:01;;;;;;;11.50;2.17;;;;;;;14.59;49.84;99174.97;4901263;29;20051;-93
2021/12/09 11:36:42;;;;;;;8.45;1.80;;;;;;;14.79;49.32;99170.22;4919317;29;20027;-94
2021/12/09 11:39:14;;;;;;;20.45;2.30;;;;;;;15.18;48.17;99165.16;4918557;29;20052;-94
2021/12/09 11:41:41;;;;;;;15.27;2.55;;;;;;;16.10;47.51;99161.47;4917210;29;20371;-95
2021/12/09 11:44:09;;;;;;;15.65;2.30;;;;;;;16.24;46.06;99150.97;4912373;29;20025;-94
2021/12/09 11:46:36;;;;;;;7.30;1.38;;;;;;;16.48;45.46;99146.56;4926126;29;20119;-95
2021/12/09 11:49:03;;;;;;;10.73;2.58;;;;;;;16.82;44.30;99138.31;4930315;29;20039;-90
2021/12/09 11:51:28;;;;;;;11.20;1.90;;;;;;;16.93;44.46;99123.81;4905404;29;20025;-91
2021/12/09 11:53:57;;;;;;;19.45;3.03;;;;;;;17.12;44.34;99135.78;4906059;29;20106;-91
2021/12/09 11:59:24;;;;;;;10.52;2.30;;;;;;;16.82;43.95;99127.72;4911465;29;20047;-91
2021/12/09 12:11:09;;;;;;;15.73;2.70;;;;;;;15.51;45.37;99144.00;4908931;29;20146;-90
2021/12/09 12:13:39;;;;;;;13.02;2.20;;;;;;;14.96;47.56;99128.81;4900014;29;20039;-90
2021/12/09 12:27:58;;;;;;;14.07;2.00;;;;;;;14.15;49.61;99117.03;4912553;29;20048;-90
2021/12/09 12:34:05;;;;;;;8.45;2.55;;;;;;;14.21;49.59;99114.56;4902358;29;20052;-90
2021/12/09 12:37:03;;;;;;;8.73;1.98;;;;;;;14.33;49.16;99101.06;4899308;29;20028;-91